createdAt,value
2018-07-01T00:00:21.639Z,17.30
2018-07-01T00:02:50.122Z,17.20
2018-07-01T00:05:21.107Z,17.20
2018-07-01T00:07:49.731Z,17.20
2018-07-01T00:10:18.231Z,17.20
2018-07-01T00:12:46.638Z,17.20
2018-07-01T00:15:15.026Z,17.10
2018-07-01T00:17:43.352Z,17.10
2018-07-01T00:20:11.680Z,17.10
2018-07-01T00:22:40.263Z,17.10
2018-07-01T00:25:08.748Z,17.10
2018-07-01T00:27:37.067Z,17.10
2018-07-01T00:30:05.972Z,17.00
2018-07-01T00:32:34.310Z,17.00
2018-07-01T00:35:02.628Z,17.00
2018-07-01T00:39:59.042Z,16.90
2018-07-01T00:42:27.471Z,16.90
2018-07-01T00:44:55.900Z,16.80
2018-07-01T00:47:24.328Z,16.80
2018-07-01T00:49:52.758Z,16.80
2018-07-01T00:52:21.394Z,16.70
2018-07-01T00:54:49.866Z,16.70
2018-07-01T00:57:18.226Z,16.70
2018-07-01T00:59:46.610Z,16.70
2018-07-01T01:02:14.945Z,16.70
2018-07-01T01:04:43.290Z,16.60
2018-07-01T01:07:11.750Z,16.60
2018-07-01T01:12:08.141Z,16.40
2018-07-01T01:14:36.490Z,16.40
2018-07-01T01:17:04.901Z,16.40
2018-07-01T01:19:33.444Z,16.40
2018-07-01T01:22:04.700Z,16.40
2018-07-01T01:24:33.181Z,16.40
2018-07-01T01:27:01.643Z,16.40
2018-07-01T01:29:30.200Z,16.30
2018-07-01T01:31:58.601Z,16.30
2018-07-01T01:34:26.995Z,16.20
2018-07-01T01:36:55.379Z,16.30
2018-07-01T01:39:26.690Z,16.20
2018-07-01T01:41:58.784Z,16.20
2018-07-01T01:45:06.756Z,16.20
2018-07-01T01:48:40.349Z,16.10
2018-07-01T01:53:16.928Z,16.10
2018-07-01T01:55:49.712Z,16.00
2018-07-01T01:58:24.959Z,15.90
2018-07-01T02:03:02.408Z,15.90
2018-07-01T02:05:40.660Z,15.90
2018-07-01T02:08:14.499Z,15.80
2018-07-01T02:10:42.856Z,15.80
2018-07-01T02:13:11.192Z,15.70
2018-07-01T02:15:46.376Z,15.70
2018-07-01T02:18:14.972Z,15.70
2018-07-01T02:20:43.814Z,15.70
2018-07-01T02:23:22.545Z,15.60
2018-07-01T02:25:50.950Z,15.50
2018-07-01T02:28:19.443Z,15.60
2018-07-01T02:30:48.086Z,15.50
2018-07-01T02:33:16.416Z,15.50
2018-07-01T02:35:44.692Z,15.50
2018-07-01T02:38:13.081Z,15.40
2018-07-01T02:40:42.333Z,15.40
2018-07-01T02:43:11.992Z,15.40
2018-07-01T02:45:40.333Z,15.40
2018-07-01T02:48:09.137Z,15.30
2018-07-01T02:50:37.464Z,15.30
2018-07-01T02:53:05.812Z,15.20
2018-07-01T02:55:34.255Z,15.20
2018-07-01T02:58:02.653Z,15.20
2018-07-01T03:00:30.949Z,15.20
2018-07-01T03:05:27.333Z,15.10
2018-07-01T03:07:55.680Z,15.20
2018-07-01T03:10:24.026Z,15.10
2018-07-01T03:12:52.384Z,15.10
2018-07-01T03:15:20.808Z,15.10
2018-07-01T03:17:49.320Z,15.10
2018-07-01T03:20:17.848Z,15.00
2018-07-01T03:22:46.228Z,15.00
2018-07-01T03:27:42.695Z,15.00
2018-07-01T03:32:39.133Z,15.00
2018-07-01T03:35:07.499Z,14.90
2018-07-01T03:37:35.827Z,14.90
2018-07-01T03:40:04.256Z,15.00
2018-07-01T03:42:32.644Z,15.00
2018-07-01T03:45:00.926Z,14.90
2018-07-01T03:47:29.242Z,15.00
2018-07-01T03:49:57.572Z,14.90
2018-07-01T03:52:25.932Z,14.90
2018-07-01T03:54:54.300Z,14.90
2018-07-01T03:57:22.728Z,14.90
2018-07-01T03:59:51.099Z,14.90
2018-07-01T04:02:19.400Z,14.90
2018-07-01T04:04:47.722Z,15.00
2018-07-01T04:07:16.053Z,14.90
2018-07-01T04:09:44.386Z,14.90
2018-07-01T04:12:12.720Z,14.90
2018-07-01T04:14:41.116Z,15.00
2018-07-01T04:17:09.448Z,15.00
2018-07-01T04:19:38.955Z,15.00
2018-07-01T04:22:08.542Z,15.00
2018-07-01T04:24:37.400Z,15.10
2018-07-01T04:27:05.828Z,15.00
2018-07-01T04:29:35.314Z,15.10
2018-07-01T04:32:03.772Z,15.10
2018-07-01T04:34:32.190Z,15.20
2018-07-01T04:37:00.730Z,15.20
2018-07-01T04:39:29.283Z,15.20
2018-07-01T04:44:25.758Z,15.30
2018-07-01T04:46:54.330Z,15.30
2018-07-01T04:49:22.644Z,15.30
2018-07-01T04:51:51.064Z,15.40
2018-07-01T04:54:19.484Z,15.40
2018-07-01T04:56:47.842Z,15.50
2018-07-01T04:59:16.179Z,15.50
2018-07-01T05:01:44.583Z,15.50
2018-07-01T05:04:13.025Z,15.60
2018-07-01T05:06:41.330Z,15.60
2018-07-01T05:09:12.152Z,15.60
2018-07-01T05:11:41.131Z,15.70
2018-07-01T05:14:09.689Z,15.70
2018-07-01T05:16:41.898Z,15.80
2018-07-01T05:19:10.468Z,15.90
2018-07-01T05:21:38.897Z,16.00
2018-07-01T05:24:07.394Z,16.10
2018-07-01T05:26:35.755Z,16.10
2018-07-01T05:29:04.085Z,16.20
2018-07-01T05:31:32.414Z,16.30
2018-07-01T05:34:00.868Z,16.30
2018-07-01T05:36:29.159Z,16.40
2018-07-01T05:38:57.817Z,16.40
2018-07-01T05:41:26.105Z,16.50
2018-07-01T05:43:54.727Z,16.60
2018-07-01T05:46:23.062Z,16.70
2018-07-01T05:48:51.516Z,16.80
2018-07-01T05:51:19.850Z,16.80
2018-07-01T05:53:48.551Z,17.00
2018-07-01T05:56:16.888Z,17.00
2018-07-01T05:58:45.330Z,17.10
2018-07-01T06:01:13.730Z,17.10
2018-07-01T06:03:42.932Z,17.20
2018-07-01T06:06:12.920Z,17.30
2018-07-01T06:08:41.271Z,17.30
2018-07-01T06:11:09.662Z,17.40
2018-07-01T06:13:37.992Z,17.50
2018-07-01T06:16:06.767Z,17.50
2018-07-01T06:18:35.955Z,17.60
2018-07-01T06:21:04.393Z,17.70
2018-07-01T06:23:32.701Z,17.70
2018-07-01T06:26:01.096Z,17.80
2018-07-01T06:28:29.795Z,17.90
2018-07-01T06:30:58.091Z,18.00
2018-07-01T06:33:26.436Z,18.10
2018-07-01T06:35:54.853Z,18.20
2018-07-01T06:38:23.369Z,18.30
2018-07-01T06:40:52.199Z,18.40
2018-07-01T06:43:20.609Z,18.40
2018-07-01T06:45:49.032Z,18.50
2018-07-01T06:48:17.391Z,18.60
2018-07-01T06:50:45.713Z,18.60
2018-07-01T06:53:14.015Z,18.70
2018-07-01T06:55:42.323Z,18.70
2018-07-01T06:58:10.667Z,18.80
2018-07-01T07:00:39.013Z,19.00
2018-07-01T07:03:07.348Z,19.10
2018-07-01T07:05:35.657Z,19.10
2018-07-01T07:08:04.006Z,19.20
2018-07-01T07:10:32.352Z,19.30
2018-07-01T07:13:00.640Z,19.40
2018-07-01T07:15:29.122Z,19.40
2018-07-01T07:17:58.062Z,19.60
2018-07-01T07:20:26.537Z,19.70
2018-07-01T07:22:54.975Z,19.80
2018-07-01T07:25:24.337Z,19.90
2018-07-01T07:27:52.806Z,19.90
2018-07-01T07:30:21.115Z,20.00
2018-07-01T07:32:49.551Z,20.00
2018-07-01T07:35:17.912Z,20.10
2018-07-01T07:37:46.229Z,20.10
2018-07-01T07:40:14.583Z,20.10
2018-07-01T07:42:42.880Z,20.20
2018-07-01T07:45:11.285Z,20.20
2018-07-01T07:47:39.616Z,20.30
2018-07-01T07:50:08.017Z,20.30
2018-07-01T07:52:36.395Z,20.40
2018-07-01T07:55:04.912Z,20.40
2018-07-01T07:57:33.460Z,20.50
2018-07-01T08:00:02.005Z,20.60
2018-07-01T08:02:30.311Z,20.60
2018-07-01T08:04:58.702Z,20.60
2018-07-01T08:07:27.127Z,20.60
2018-07-01T08:09:55.505Z,20.60
2018-07-01T08:12:23.832Z,20.70
2018-07-01T08:14:52.244Z,20.70
2018-07-01T08:17:20.656Z,20.90
2018-07-01T08:19:49.037Z,20.90
2018-07-01T08:22:17.416Z,20.90
2018-07-01T08:24:45.843Z,21.00
2018-07-01T08:27:14.387Z,21.00
2018-07-01T08:29:42.743Z,21.00
2018-07-01T08:32:11.733Z,21.10
2018-07-01T08:34:40.336Z,21.10
2018-07-01T08:39:36.888Z,21.10
2018-07-01T08:42:27.312Z,21.20
2018-07-01T08:44:56.429Z,21.20
2018-07-01T08:47:25.401Z,21.30
2018-07-01T08:49:54.654Z,21.40
2018-07-01T08:52:23.332Z,21.40
2018-07-01T08:54:53.105Z,21.60
2018-07-01T08:57:22.323Z,21.70
2018-07-01T08:59:51.461Z,21.60
2018-07-01T09:02:20.634Z,21.60
2018-07-01T09:04:49.332Z,21.60
2018-07-01T09:07:18.314Z,21.70
2018-07-01T09:09:47.470Z,21.70
2018-07-01T09:12:15.970Z,21.90
2018-07-01T09:14:44.590Z,22.00
2018-07-01T09:17:12.988Z,21.90
2018-07-01T09:19:41.395Z,21.90
2018-07-01T09:22:09.784Z,22.00
2018-07-01T09:24:38.164Z,22.00
2018-07-01T09:27:06.716Z,21.90
2018-07-01T09:32:08.636Z,22.00
2018-07-01T09:34:37.028Z,22.00
2018-07-01T09:37:05.422Z,22.00
2018-07-01T09:39:33.741Z,22.00
2018-07-01T09:42:02.171Z,22.00
2018-07-01T09:44:30.529Z,21.90
2018-07-01T09:46:58.853Z,21.90
2018-07-01T09:49:30.324Z,22.00
2018-07-01T09:51:58.647Z,22.20
2018-07-01T09:54:27.114Z,22.20
2018-07-01T09:56:55.802Z,22.30
2018-07-01T09:59:24.514Z,22.40
2018-07-01T10:01:53.323Z,22.30
2018-07-01T10:04:22.098Z,22.50
2018-07-01T10:06:51.646Z,22.50
2018-07-01T10:09:21.048Z,22.70
2018-07-01T10:11:49.684Z,22.60
2018-07-01T10:14:18.333Z,22.50
2018-07-01T10:16:47.487Z,22.40
2018-07-01T10:23:56.027Z,22.60
2018-07-01T10:26:25.443Z,22.70
2018-07-01T10:29:02.993Z,22.60
2018-07-01T10:31:31.841Z,22.70
2018-07-01T10:34:00.698Z,22.90
2018-07-01T10:36:33.367Z,23.00
2018-07-01T10:39:03.457Z,23.00
2018-07-01T10:41:33.220Z,23.10
2018-07-01T10:44:03.718Z,23.10
2018-07-01T10:46:35.180Z,23.00
2018-07-01T10:49:03.612Z,22.80
2018-07-01T10:51:32.761Z,22.70
2018-07-01T10:54:01.147Z,22.70
2018-07-01T10:56:29.711Z,22.70
2018-07-01T10:58:58.351Z,22.80
2018-07-01T11:01:27.005Z,23.00
2018-07-01T11:03:55.491Z,23.00
2018-07-01T11:06:23.952Z,23.10
2018-07-01T11:08:52.304Z,23.30
2018-07-01T11:11:20.653Z,23.30
2018-07-01T11:13:48.958Z,23.40
2018-07-01T11:16:17.327Z,23.40
2018-07-01T11:18:45.693Z,23.40
2018-07-01T11:21:13.996Z,23.50
2018-07-01T11:23:42.510Z,23.40
2018-07-01T11:26:10.903Z,23.50
2018-07-01T11:28:39.239Z,23.50
2018-07-01T11:31:07.665Z,23.60
2018-07-01T11:33:36.323Z,23.70
2018-07-01T11:36:04.896Z,23.80
2018-07-01T11:38:33.509Z,24.00
2018-07-01T11:41:01.977Z,24.10
2018-07-01T11:43:30.355Z,24.10
2018-07-01T11:45:58.738Z,24.10
2018-07-01T11:48:31.386Z,24.20
2018-07-01T11:50:59.786Z,24.00
2018-07-01T11:53:28.113Z,24.10
2018-07-01T11:55:56.424Z,24.10
2018-07-01T11:58:24.720Z,24.20
2018-07-01T12:00:53.093Z,24.30
2018-07-01T12:03:21.450Z,24.40
2018-07-01T12:05:49.787Z,24.40
2018-07-01T12:08:18.127Z,24.40
2018-07-01T12:10:46.467Z,24.50
2018-07-01T12:13:14.852Z,24.50
2018-07-01T12:15:43.361Z,24.20
2018-07-01T12:18:11.843Z,24.20
2018-07-01T12:20:40.317Z,24.20
2018-07-01T12:23:09.896Z,24.00
2018-07-01T12:25:38.416Z,24.00
2018-07-01T12:28:06.916Z,24.10
2018-07-01T12:30:35.706Z,24.10
2018-07-01T12:35:32.180Z,24.20
2018-07-01T12:38:00.750Z,24.30
2018-07-01T12:40:29.153Z,24.40
2018-07-01T12:42:57.652Z,24.60
2018-07-01T12:45:26.159Z,24.90
2018-07-01T12:47:54.807Z,24.90
2018-07-01T12:50:23.686Z,24.80
2018-07-01T12:52:52.415Z,24.50
2018-07-01T12:55:22.330Z,24.50
2018-07-01T12:57:50.919Z,24.60
2018-07-01T13:00:19.628Z,24.70
2018-07-01T13:02:48.532Z,25.10
2018-07-01T13:05:17.689Z,25.10
2018-07-01T13:07:47.970Z,25.10
2018-07-01T13:10:16.468Z,25.10
2018-07-01T13:12:44.875Z,25.20
2018-07-01T13:15:13.336Z,25.40
2018-07-01T13:17:41.757Z,25.20
2018-07-01T13:20:10.085Z,25.20
2018-07-01T13:22:38.473Z,25.20
2018-07-01T13:25:06.839Z,25.00
2018-07-01T13:27:35.225Z,25.10
2018-07-01T13:30:03.702Z,25.20
2018-07-01T13:32:32.090Z,25.30
2018-07-01T13:35:00.430Z,25.50
2018-07-01T13:37:28.769Z,25.60
2018-07-01T13:39:57.353Z,25.50
2018-07-01T13:42:25.949Z,25.60
2018-07-01T13:44:54.976Z,25.70
2018-07-01T13:47:23.786Z,25.80
2018-07-01T13:49:52.236Z,25.70
2018-07-01T13:52:20.611Z,25.60
2018-07-01T13:54:48.998Z,25.60
2018-07-01T13:57:17.463Z,25.50
2018-07-01T13:59:45.765Z,25.40
2018-07-01T14:02:14.124Z,25.50
2018-07-01T14:04:42.561Z,25.70
2018-07-01T14:07:11.060Z,25.70
2018-07-01T14:09:39.565Z,25.60
2018-07-01T14:12:07.787Z,25.50
2018-07-01T14:14:36.201Z,25.50
2018-07-01T14:17:04.842Z,25.50
2018-07-01T14:19:33.419Z,25.70
2018-07-01T14:22:01.849Z,25.70
2018-07-01T14:24:30.424Z,25.70
2018-07-01T14:26:59.097Z,25.70
2018-07-01T14:29:27.440Z,26.00
2018-07-01T14:31:55.839Z,26.20
2018-07-01T14:34:24.256Z,26.10
2018-07-01T14:36:53.010Z,25.90
2018-07-01T14:39:21.352Z,25.90
2018-07-01T14:41:49.803Z,25.90
2018-07-01T14:44:18.176Z,26.10
2018-07-01T14:46:46.737Z,26.20
2018-07-01T14:49:15.165Z,26.30
2018-07-01T14:51:43.547Z,26.10
2018-07-01T14:54:11.953Z,26.10
2018-07-01T14:56:41.558Z,26.10
2018-07-01T14:59:09.980Z,26.10
2018-07-01T15:01:38.446Z,26.20
2018-07-01T15:04:06.910Z,26.40
2018-07-01T15:06:35.431Z,26.60
2018-07-01T15:09:06.049Z,26.80
2018-07-01T15:11:34.651Z,26.90
2018-07-01T15:14:03.439Z,26.80
2018-07-01T15:16:31.899Z,26.50
2018-07-01T15:19:00.656Z,26.30
2018-07-01T15:21:29.029Z,26.40
2018-07-01T15:23:57.537Z,26.40
2018-07-01T15:26:25.886Z,26.50
2018-07-01T15:28:54.420Z,26.60
2018-07-01T15:31:22.825Z,26.70
2018-07-01T15:33:51.139Z,26.90
2018-07-01T15:36:19.475Z,26.90
2018-07-01T15:38:47.777Z,26.90
2018-07-01T15:41:16.248Z,26.80
2018-07-01T15:43:44.723Z,26.90
2018-07-01T15:46:13.299Z,27.00
2018-07-01T15:48:41.974Z,27.00
2018-07-01T15:51:10.343Z,27.00
2018-07-01T15:53:38.849Z,27.10
2018-07-01T15:56:07.189Z,27.10
2018-07-01T15:58:35.738Z,27.10
2018-07-01T16:01:04.320Z,27.00
2018-07-01T16:03:32.669Z,27.10
2018-07-01T16:06:01.121Z,27.10
2018-07-01T16:08:29.607Z,27.00
2018-07-01T16:13:26.320Z,26.70
2018-07-01T16:15:54.688Z,26.70
2018-07-01T16:18:23.042Z,26.80
2018-07-01T16:20:51.573Z,26.80
2018-07-01T16:23:20.074Z,26.80
2018-07-01T16:25:53.759Z,26.70
2018-07-01T16:29:30.251Z,26.50
2018-07-01T16:31:58.563Z,26.60
2018-07-01T16:34:27.028Z,26.70
2018-07-01T16:36:55.527Z,26.70
2018-07-01T16:39:23.912Z,26.60
2018-07-01T16:41:52.723Z,26.70
2018-07-01T16:44:21.287Z,26.70
2018-07-01T16:46:49.635Z,26.70
2018-07-01T16:49:18.055Z,26.60
2018-07-01T16:51:46.512Z,26.60
2018-07-01T16:54:14.870Z,26.50
2018-07-01T16:59:11.358Z,26.60
2018-07-01T17:01:39.881Z,26.80
2018-07-01T17:04:10.539Z,26.90
2018-07-01T17:06:38.954Z,26.70
2018-07-01T17:09:11.457Z,26.70
2018-07-01T17:11:39.807Z,26.60
2018-07-01T17:14:08.134Z,26.60
2018-07-01T17:19:05.812Z,26.10
2018-07-01T17:21:34.541Z,26.10
2018-07-01T17:24:03.164Z,26.00
2018-07-01T17:26:31.488Z,26.00
2018-07-01T17:29:00.018Z,26.00
2018-07-01T17:31:33.704Z,25.90
2018-07-01T17:34:02.073Z,26.00
2018-07-01T17:36:30.410Z,25.80
2018-07-01T17:38:59.191Z,26.00
2018-07-01T17:41:27.542Z,26.10
2018-07-01T17:43:55.899Z,26.10
2018-07-01T17:46:24.206Z,26.10
2018-07-01T17:48:52.558Z,26.00
2018-07-01T17:51:21.033Z,26.00
2018-07-01T17:53:53.603Z,25.90
2018-07-01T17:56:22.146Z,25.70
2018-07-01T17:58:50.688Z,25.70
2018-07-01T18:01:19.095Z,25.80
2018-07-01T18:03:47.593Z,25.80
2018-07-01T18:06:16.134Z,25.90
2018-07-01T18:08:44.841Z,25.90
2018-07-01T18:11:13.521Z,25.70
2018-07-01T18:13:42.243Z,25.60
2018-07-01T18:16:10.914Z,25.50
2018-07-01T18:18:39.585Z,25.40
2018-07-01T18:21:08.457Z,25.30
2018-07-01T18:24:11.122Z,25.30
2018-07-01T18:26:08.771Z,25.30
2018-07-01T18:28:48.660Z,25.20
2018-07-01T18:33:36.151Z,25.70
2018-07-01T18:36:08.172Z,26.00
2018-07-01T18:38:37.009Z,26.20
2018-07-01T18:41:08.746Z,26.10
2018-07-01T18:43:38.853Z,26.20
2018-07-01T18:46:07.523Z,26.20
2018-07-01T18:48:36.256Z,26.10
2018-07-01T18:51:04.908Z,25.90
2018-07-01T18:53:33.520Z,25.90
2018-07-01T18:56:02.333Z,25.90
2018-07-01T18:58:31.013Z,26.00
2018-07-01T19:03:28.054Z,25.50
2018-07-01T19:05:56.689Z,25.30
2018-07-01T19:08:25.262Z,24.80
2018-07-01T19:10:53.969Z,24.20
2018-07-01T19:13:22.644Z,23.60
2018-07-01T19:15:51.673Z,23.30
2018-07-01T19:18:20.579Z,23.00
2018-07-01T19:20:49.496Z,22.80
2018-07-01T19:23:18.520Z,22.50
2018-07-01T19:25:47.682Z,22.40
2018-07-01T19:28:16.455Z,22.30
2018-07-01T19:30:45.063Z,22.10
2018-07-01T19:33:13.632Z,22.00
2018-07-01T19:35:42.286Z,21.90
2018-07-01T19:38:10.924Z,21.80
2018-07-01T19:40:39.556Z,21.70
2018-07-01T19:43:08.492Z,21.60
2018-07-01T19:45:37.033Z,21.50
2018-07-01T19:48:06.110Z,21.40
2018-07-01T19:50:34.693Z,21.30
2018-07-01T19:53:03.420Z,21.20
2018-07-01T19:55:32.146Z,21.10
2018-07-01T19:58:00.975Z,21.00
2018-07-01T20:00:29.637Z,20.90
2018-07-01T20:02:59.242Z,20.90
2018-07-01T20:05:27.960Z,20.80
2018-07-01T20:07:56.596Z,20.70
2018-07-01T20:10:25.331Z,20.60
2018-07-01T20:12:54.091Z,20.50
2018-07-01T20:15:24.030Z,20.50
2018-07-01T20:17:52.673Z,20.40
2018-07-01T20:20:21.823Z,20.30
2018-07-01T20:22:50.217Z,20.20
2018-07-01T20:25:18.552Z,20.20
2018-07-01T20:27:46.903Z,20.10
2018-07-01T20:30:15.431Z,20.00
2018-07-01T20:32:48.594Z,19.90
2018-07-01T20:40:13.115Z,19.70
2018-07-01T20:45:09.867Z,19.70
2018-07-01T20:47:38.420Z,19.60
2018-07-01T20:50:06.748Z,19.60
2018-07-01T20:52:35.057Z,19.50
2018-07-01T20:55:03.588Z,19.40
2018-07-01T20:57:32.299Z,19.40
2018-07-01T21:00:00.855Z,19.30
2018-07-01T21:02:29.230Z,19.30
2018-07-01T21:04:57.664Z,19.20
2018-07-01T21:07:26.054Z,19.10
2018-07-01T21:09:54.420Z,19.10
2018-07-01T21:12:22.763Z,19.00
2018-07-01T21:14:51.085Z,19.00
2018-07-01T21:17:21.719Z,18.90
2018-07-01T21:19:50.062Z,18.80
2018-07-01T21:22:18.539Z,18.80
2018-07-01T21:24:47.794Z,18.70
2018-07-01T21:27:16.101Z,18.70
2018-07-01T21:29:44.481Z,18.70
2018-07-01T21:32:12.916Z,18.70
2018-07-01T21:34:41.291Z,18.60
2018-07-01T21:37:09.723Z,18.50
2018-07-01T21:39:38.170Z,18.50
2018-07-01T21:42:06.590Z,18.40
2018-07-01T21:44:35.017Z,18.40
2018-07-01T21:47:03.348Z,18.30
2018-07-01T21:49:31.651Z,18.30
2018-07-01T21:52:00.063Z,18.20
2018-07-01T21:54:28.410Z,18.20
2018-07-01T21:56:56.746Z,18.20
2018-07-01T21:59:25.120Z,18.20
2018-07-01T22:01:53.504Z,18.10
2018-07-01T22:04:21.826Z,18.10
2018-07-01T22:07:04.765Z,18.00
2018-07-01T22:09:33.102Z,17.90
2018-07-01T22:12:12.811Z,17.90
2018-07-01T22:17:00.231Z,17.80
2018-07-01T22:19:28.620Z,17.80
2018-07-01T22:21:57.578Z,17.70
2018-07-01T22:24:27.152Z,17.80
2018-07-01T22:26:55.464Z,17.70
2018-07-01T22:29:23.898Z,17.70
2018-07-01T22:31:52.246Z,17.60
2018-07-01T22:34:21.346Z,17.60
2018-07-01T22:36:50.086Z,17.50
2018-07-01T22:39:23.456Z,17.50
2018-07-01T22:41:52.855Z,17.40
2018-07-01T22:44:21.648Z,17.40
2018-07-01T22:46:50.847Z,17.40
2018-07-01T22:49:19.215Z,17.40
2018-07-01T22:51:47.514Z,17.40
2018-07-01T22:54:15.841Z,17.30
2018-07-01T22:56:44.204Z,17.30
2018-07-01T22:59:12.488Z,17.30
2018-07-01T23:01:59.002Z,17.20
2018-07-01T23:04:27.364Z,17.20
2018-07-01T23:06:55.740Z,17.10
2018-07-01T23:09:24.101Z,17.10
2018-07-01T23:11:52.514Z,17.10
2018-07-01T23:14:20.976Z,17.10
2018-07-01T23:16:49.299Z,17.00
2018-07-01T23:19:17.656Z,17.00
2018-07-01T23:21:45.956Z,17.00
2018-07-01T23:24:14.282Z,16.90
2018-07-01T23:26:42.636Z,16.90
2018-07-01T23:29:10.950Z,16.80
2018-07-01T23:31:39.277Z,16.80
2018-07-01T23:34:07.563Z,16.80
2018-07-01T23:36:35.876Z,16.80
2018-07-01T23:39:05.651Z,16.70
2018-07-01T23:41:33.981Z,16.70
2018-07-01T23:44:02.383Z,16.70
2018-07-01T23:46:30.740Z,16.70
2018-07-01T23:48:59.136Z,16.70
2018-07-01T23:51:27.532Z,16.70
2018-07-01T23:53:55.864Z,16.70
2018-07-01T23:56:24.310Z,16.60
2018-07-01T23:58:52.699Z,16.60
